createdAt,value
2019-02-27T00:01:49.941Z,29.07
2019-02-27T00:04:19.230Z,28.20
2019-02-27T00:06:48.650Z,29.77
2019-02-27T00:09:18.005Z,31.00
2019-02-27T00:11:47.348Z,30.37
2019-02-27T00:14:16.711Z,30.90
2019-02-27T00:16:46.050Z,29.53
2019-02-27T00:19:15.398Z,30.23
2019-02-27T00:21:44.751Z,30.97
2019-02-27T00:24:14.099Z,30.37
2019-02-27T00:26:43.434Z,30.30
2019-02-27T00:29:12.756Z,29.90
2019-02-27T00:31:45.121Z,30.13
2019-02-27T00:34:13.314Z,31.00
2019-02-27T00:36:44.819Z,32.20
2019-02-27T00:39:14.814Z,31.03
2019-02-27T00:41:46.026Z,31.73
2019-02-27T00:44:15.230Z,32.37
2019-02-27T00:46:47.076Z,31.50
2019-02-27T00:49:18.259Z,32.60
2019-02-27T00:51:47.587Z,32.87
2019-02-27T00:54:16.912Z,34.17
2019-02-27T00:56:46.259Z,33.37
2019-02-27T00:59:15.599Z,34.10
2019-02-27T01:01:47.295Z,33.07
2019-02-27T01:04:16.004Z,33.80
2019-02-27T01:06:47.458Z,35.87
2019-02-27T01:09:17.690Z,34.07
2019-02-27T01:11:51.446Z,34.63
2019-02-27T01:14:18.077Z,36.20
2019-02-27T01:16:47.699Z,35.77
2019-02-27T01:19:18.510Z,36.57
2019-02-27T01:21:47.839Z,36.07
2019-02-27T01:24:17.423Z,36.73
2019-02-27T01:26:47.383Z,36.83
2019-02-27T01:29:18.097Z,35.17
2019-02-27T01:31:47.808Z,35.83
2019-02-27T01:34:18.157Z,36.00
2019-02-27T01:36:47.476Z,36.07
2019-02-27T01:39:16.819Z,37.43
2019-02-27T01:41:46.177Z,37.03
2019-02-27T01:44:17.343Z,35.57
2019-02-27T01:46:46.777Z,36.10
2019-02-27T01:49:16.814Z,35.67
2019-02-27T01:51:46.384Z,35.63
2019-02-27T01:54:15.784Z,35.57
2019-02-27T01:56:45.130Z,36.47
2019-02-27T01:59:16.926Z,36.23
2019-02-27T02:01:46.643Z,35.40
2019-02-27T02:04:19.961Z,35.20
2019-02-27T02:06:47.205Z,34.80
2019-02-27T02:09:39.457Z,36.90
2019-02-27T02:12:12.619Z,36.73
2019-02-27T02:15:21.732Z,34.20
2019-02-27T02:18:32.193Z,34.97
2019-02-27T02:22:00.926Z,35.67
2019-02-27T02:25:25.080Z,35.40
2019-02-27T02:28:48.083Z,34.90
2019-02-27T02:31:52.514Z,35.53
2019-02-27T02:35:01.902Z,34.83
2019-02-27T02:38:15.097Z,35.90
2019-02-27T02:41:34.092Z,37.40
2019-02-27T02:44:32.544Z,36.97
2019-02-27T02:47:11.677Z,36.13
2019-02-27T02:50:08.320Z,35.30
2019-02-27T02:53:06.587Z,37.60
2019-02-27T02:56:03.306Z,35.03
2019-02-27T02:58:39.367Z,36.20
2019-02-27T03:01:36.142Z,38.63
2019-02-27T03:04:57.895Z,37.70
2019-02-27T03:08:12.035Z,38.60
2019-02-27T03:11:17.752Z,36.73
2019-02-27T03:14:16.866Z,37.80
2019-02-27T03:17:27.183Z,37.13
2019-02-27T03:20:36.086Z,37.60
2019-02-27T03:23:58.380Z,37.70
2019-02-27T03:27:17.558Z,37.93
2019-02-27T03:30:40.073Z,38.87
2019-02-27T03:33:53.511Z,38.70
2019-02-27T03:36:46.126Z,39.37
2019-02-27T03:39:49.083Z,38.80
2019-02-27T03:42:52.231Z,38.80
2019-02-27T03:45:50.913Z,38.37
2019-02-27T03:48:41.506Z,38.00
2019-02-27T03:51:46.043Z,36.50
2019-02-27T03:54:36.184Z,36.53
2019-02-27T03:57:54.893Z,37.67
2019-02-27T04:00:53.721Z,36.40
2019-02-27T04:04:17.457Z,36.30
2019-02-27T04:07:35.767Z,37.53
2019-02-27T04:10:05.237Z,37.27
2019-02-27T04:12:34.699Z,37.00
2019-02-27T04:15:06.150Z,36.93
2019-02-27T04:17:33.697Z,36.97
2019-02-27T04:20:03.026Z,36.37
2019-02-27T04:22:36.214Z,35.47
2019-02-27T04:25:03.417Z,37.17
2019-02-27T04:27:32.758Z,36.10
2019-02-27T04:30:02.103Z,36.53
2019-02-27T04:32:31.450Z,38.33
2019-02-27T04:35:00.785Z,37.03
2019-02-27T04:37:30.103Z,37.60
2019-02-27T04:39:59.548Z,37.00
2019-02-27T04:42:28.873Z,37.00
2019-02-27T04:44:58.217Z,35.03
2019-02-27T04:47:29.162Z,34.03
2019-02-27T04:49:58.638Z,33.83
2019-02-27T04:52:28.010Z,35.20
2019-02-27T04:54:57.381Z,34.63
2019-02-27T04:57:26.694Z,34.27
2019-02-27T04:59:57.711Z,35.03
2019-02-27T05:02:27.034Z,32.53
2019-02-27T05:04:56.377Z,33.57
2019-02-27T05:07:25.716Z,32.90
2019-02-27T05:09:55.153Z,33.43
2019-02-27T05:12:25.905Z,33.50
2019-02-27T05:14:55.210Z,33.13
2019-02-27T05:17:24.710Z,32.63
2019-02-27T05:19:54.012Z,32.70
2019-02-27T05:22:26.566Z,32.80
2019-02-27T05:24:54.546Z,33.73
2019-02-27T05:27:23.922Z,34.13
2019-02-27T05:29:53.238Z,33.27
2019-02-27T05:32:25.288Z,33.50
2019-02-27T05:34:53.631Z,32.70
2019-02-27T05:37:22.971Z,32.03
2019-02-27T05:39:53.403Z,34.77
2019-02-27T05:42:22.750Z,33.20
2019-02-27T05:44:55.503Z,34.43
2019-02-27T05:47:23.218Z,34.53
2019-02-27T05:49:52.704Z,34.30
2019-02-27T05:52:22.052Z,38.53
2019-02-27T05:54:51.406Z,38.67
2019-02-27T05:57:21.075Z,39.53
2019-02-27T05:59:51.782Z,38.63
2019-02-27T06:02:21.108Z,33.57
2019-02-27T06:04:50.473Z,33.67
2019-02-27T06:07:19.798Z,33.40
2019-02-27T06:09:49.240Z,34.07
2019-02-27T06:12:18.593Z,31.47
2019-02-27T06:14:47.902Z,33.20
2019-02-27T06:17:17.266Z,31.20
2019-02-27T06:19:47.662Z,32.53
2019-02-27T06:22:16.977Z,32.50
2019-02-27T06:24:46.407Z,31.07
2019-02-27T06:27:16.114Z,30.73
2019-02-27T06:29:45.429Z,29.83
2019-02-27T06:32:14.781Z,31.07
2019-02-27T06:34:44.119Z,29.53
2019-02-27T06:37:15.604Z,29.57
2019-02-27T06:39:44.833Z,30.73
2019-02-27T06:42:14.221Z,31.20
2019-02-27T06:44:43.550Z,31.37
2019-02-27T06:47:12.892Z,30.03
2019-02-27T06:49:42.227Z,30.40
2019-02-27T06:52:11.570Z,31.03
2019-02-27T06:54:40.949Z,31.30
2019-02-27T06:57:10.901Z,30.43
2019-02-27T06:59:40.287Z,30.87
2019-02-27T07:02:09.648Z,30.40
2019-02-27T07:04:39.479Z,30.00
2019-02-27T07:07:10.622Z,31.17
2019-02-27T07:09:39.943Z,29.67
2019-02-27T07:12:09.283Z,31.63
2019-02-27T07:14:39.102Z,29.33
2019-02-27T07:17:09.268Z,30.40
2019-02-27T07:19:38.713Z,29.90
2019-02-27T07:22:09.319Z,29.60
2019-02-27T07:24:39.331Z,31.30
2019-02-27T07:27:08.654Z,29.87
2019-02-27T07:29:38.004Z,29.37
2019-02-27T07:32:07.780Z,30.97
2019-02-27T07:34:37.216Z,30.00
2019-02-27T07:37:06.620Z,29.93
2019-02-27T07:39:36.173Z,30.70
2019-02-27T07:42:05.594Z,31.13
2019-02-27T07:44:35.839Z,97.20
2019-02-27T07:47:05.258Z,40.07
2019-02-27T07:49:34.839Z,41.00
2019-02-27T07:52:04.182Z,35.70
2019-02-27T07:54:33.521Z,34.20
2019-02-27T07:57:03.042Z,33.43
2019-02-27T07:59:32.607Z,32.00
2019-02-27T08:02:03.074Z,31.90
2019-02-27T08:04:32.702Z,31.83
2019-02-27T08:07:02.188Z,29.93
2019-02-27T08:09:31.568Z,32.00
2019-02-27T08:12:03.221Z,31.87
2019-02-27T08:14:36.960Z,30.57
2019-02-27T08:17:10.288Z,30.03
2019-02-27T08:19:34.940Z,29.93
2019-02-27T08:22:04.412Z,33.40
2019-02-27T08:24:33.880Z,32.47
2019-02-27T08:27:03.189Z,33.87
2019-02-27T08:29:32.645Z,34.87
2019-02-27T08:32:05.367Z,32.87
2019-02-27T08:34:34.462Z,34.07
2019-02-27T08:37:03.880Z,33.27
2019-02-27T08:39:33.219Z,32.93
2019-02-27T08:42:03.590Z,34.87
2019-02-27T08:44:33.472Z,34.57
2019-02-27T08:47:04.246Z,33.17
2019-02-27T08:49:33.723Z,34.13
2019-02-27T08:52:03.042Z,36.77
2019-02-27T08:54:33.103Z,36.87
2019-02-27T08:57:02.546Z,37.60
2019-02-27T08:59:31.867Z,38.87
2019-02-27T09:02:01.198Z,38.17
2019-02-27T09:04:30.519Z,39.40
2019-02-27T09:07:02.797Z,41.57
2019-02-27T09:09:30.911Z,42.53
2019-02-27T09:12:00.262Z,41.50
2019-02-27T09:14:29.586Z,40.53
2019-02-27T09:16:58.925Z,41.00
2019-02-27T09:19:28.257Z,42.57
2019-02-27T09:21:59.940Z,41.97
2019-02-27T09:24:30.430Z,44.50
2019-02-27T09:26:59.803Z,45.30
2019-02-27T09:29:29.126Z,42.90
2019-02-27T09:31:58.449Z,43.90
2019-02-27T09:34:27.827Z,42.90
2019-02-27T09:36:57.165Z,42.50
2019-02-27T09:39:30.702Z,44.10
2019-02-27T09:41:57.550Z,43.10
2019-02-27T09:44:26.901Z,45.43
2019-02-27T09:46:56.301Z,43.37
2019-02-27T09:49:25.666Z,42.77
2019-02-27T09:51:56.345Z,41.20
2019-02-27T09:54:26.077Z,41.07
2019-02-27T09:56:55.455Z,40.53
2019-02-27T09:59:24.786Z,40.93
2019-02-27T10:01:54.126Z,39.67
2019-02-27T10:04:25.952Z,39.13
2019-02-27T10:06:54.514Z,38.77
2019-02-27T10:09:23.872Z,39.63
2019-02-27T10:11:53.249Z,37.43
2019-02-27T10:14:22.577Z,39.73
2019-02-27T10:16:51.918Z,40.17
2019-02-27T10:19:21.278Z,40.60
2019-02-27T10:21:50.644Z,42.67
2019-02-27T10:24:19.971Z,40.57
2019-02-27T10:26:49.335Z,40.30
2019-02-27T10:29:19.094Z,39.97
2019-02-27T10:31:48.466Z,41.83
2019-02-27T10:34:18.306Z,41.77
2019-02-27T10:36:48.451Z,43.03
2019-02-27T10:39:17.889Z,41.13
2019-02-27T10:41:49.770Z,42.20
2019-02-27T10:44:18.311Z,40.93
2019-02-27T10:46:47.645Z,41.20
2019-02-27T10:49:21.426Z,39.53
2019-02-27T10:51:48.065Z,39.07
2019-02-27T10:54:17.394Z,39.93
2019-02-27T10:56:46.751Z,38.97
2019-02-27T10:59:16.101Z,40.03
2019-02-27T11:01:45.447Z,40.97
2019-02-27T11:04:15.393Z,40.03
2019-02-27T11:06:45.237Z,40.43
2019-02-27T11:09:26.490Z,38.87
2019-02-27T11:11:57.551Z,40.60
2019-02-27T11:14:31.627Z,39.77
2019-02-27T11:17:02.048Z,38.57
2019-02-27T11:19:29.137Z,38.13
2019-02-27T11:21:59.095Z,38.63
2019-02-27T11:24:28.431Z,39.60
2019-02-27T11:26:57.774Z,36.57
2019-02-27T11:29:27.144Z,36.80
2019-02-27T11:31:56.470Z,37.97
2019-02-27T11:34:25.827Z,37.37
2019-02-27T11:36:55.162Z,37.37
2019-02-27T11:39:24.519Z,35.30
2019-02-27T11:41:53.958Z,34.57
2019-02-27T11:44:23.284Z,36.53
2019-02-27T11:46:58.710Z,35.50
2019-02-27T11:49:23.697Z,34.77
2019-02-27T11:51:53.190Z,34.47
2019-02-27T11:54:23.288Z,34.50
2019-02-27T11:56:56.298Z,34.87
2019-02-27T11:59:23.735Z,34.37
2019-02-27T12:01:55.333Z,33.00
2019-02-27T12:04:24.174Z,33.67
2019-02-27T12:06:53.496Z,31.40
2019-02-27T12:09:22.856Z,33.93
2019-02-27T12:11:52.201Z,32.47
2019-02-27T12:14:21.589Z,32.40
2019-02-27T12:16:51.675Z,31.23
2019-02-27T12:19:21.769Z,28.63
2019-02-27T12:21:51.108Z,26.90
2019-02-27T12:24:20.462Z,27.50
2019-02-27T12:26:49.801Z,27.50
2019-02-27T12:29:19.191Z,25.20
2019-02-27T12:31:48.998Z,30.10
2019-02-27T12:34:18.379Z,28.17
2019-02-27T12:36:49.932Z,26.17
2019-02-27T12:39:18.809Z,26.43
2019-02-27T12:41:49.045Z,28.47
2019-02-27T12:44:18.417Z,27.67
2019-02-27T12:46:47.808Z,28.20
2019-02-27T12:49:19.985Z,26.70
2019-02-27T12:51:48.215Z,27.23
2019-02-27T12:54:17.587Z,26.93
2019-02-27T12:56:47.189Z,28.57
2019-02-27T12:59:16.558Z,26.73
2019-02-27T13:01:50.718Z,27.47
2019-02-27T13:04:19.807Z,27.40
2019-02-27T13:06:48.097Z,27.20
2019-02-27T13:09:17.446Z,26.90
2019-02-27T13:11:46.782Z,26.77
2019-02-27T13:14:16.151Z,26.30
2019-02-27T13:16:49.212Z,26.03
2019-02-27T13:19:16.608Z,26.23
2019-02-27T13:21:45.976Z,26.37
2019-02-27T13:24:16.002Z,26.60
2019-02-27T13:26:45.353Z,26.73
2019-02-27T13:29:14.694Z,26.53
2019-02-27T13:31:44.023Z,26.57
2019-02-27T13:34:13.893Z,26.47
2019-02-27T13:36:43.856Z,24.97
2019-02-27T13:39:13.191Z,25.93
2019-02-27T13:41:45.540Z,25.43
2019-02-27T13:44:13.639Z,25.27
2019-02-27T13:46:42.954Z,25.13
2019-02-27T13:49:14.000Z,25.27
2019-02-27T13:51:43.361Z,25.53
2019-02-27T13:54:12.726Z,25.13
2019-02-27T13:56:42.153Z,26.00
2019-02-27T13:59:11.760Z,25.53
2019-02-27T14:01:41.099Z,24.47
2019-02-27T14:04:10.441Z,24.83
2019-02-27T14:06:42.853Z,23.23
2019-02-27T14:09:10.855Z,24.00
2019-02-27T14:11:40.191Z,23.60
2019-02-27T14:14:09.571Z,24.53
2019-02-27T14:16:38.905Z,25.43
2019-02-27T14:19:08.262Z,24.93
2019-02-27T14:21:39.569Z,23.87
2019-02-27T14:24:08.717Z,24.33
2019-02-27T14:26:38.279Z,24.53
2019-02-27T14:29:09.117Z,24.10
2019-02-27T14:31:40.105Z,25.63
2019-02-27T14:34:09.563Z,22.13
2019-02-27T14:36:39.324Z,23.50
2019-02-27T14:39:12.510Z,22.23
2019-02-27T14:41:41.861Z,21.50
2019-02-27T14:44:11.175Z,21.43
2019-02-27T14:46:41.936Z,20.77
2019-02-27T14:49:13.843Z,19.97
2019-02-27T14:51:43.402Z,21.00
2019-02-27T14:54:13.778Z,19.93
2019-02-27T14:56:43.236Z,18.90
2019-02-27T14:59:12.827Z,19.93
2019-02-27T15:01:42.276Z,19.43
2019-02-27T15:04:11.596Z,19.27
2019-02-27T15:06:40.926Z,19.13
2019-02-27T15:09:10.401Z,18.67
2019-02-27T15:11:39.971Z,18.83
2019-02-27T15:14:09.563Z,18.80
2019-02-27T15:16:38.995Z,18.63
2019-02-27T15:19:08.424Z,20.27
2019-02-27T15:21:38.015Z,19.30
2019-02-27T15:24:10.517Z,18.87
2019-02-27T15:26:45.169Z,20.00
2019-02-27T15:29:11.078Z,20.33
2019-02-27T15:31:40.423Z,20.83
2019-02-27T15:34:12.110Z,20.07
2019-02-27T15:36:40.835Z,19.17
2019-02-27T15:39:11.816Z,19.53
2019-02-27T15:41:41.140Z,19.97
2019-02-27T15:44:10.485Z,20.73
2019-02-27T15:46:40.287Z,20.87
2019-02-27T15:49:12.821Z,20.47
2019-02-27T15:51:40.781Z,20.57
2019-02-27T15:54:10.523Z,21.33
2019-02-27T15:56:42.008Z,21.40
2019-02-27T15:59:11.037Z,24.83
2019-02-27T16:01:41.522Z,25.70
2019-02-27T16:04:10.847Z,24.20
2019-02-27T16:06:40.687Z,26.87
2019-02-27T16:09:10.628Z,26.57
2019-02-27T16:11:39.962Z,26.77
2019-02-27T16:14:10.295Z,27.77
2019-02-27T16:16:40.811Z,27.40
2019-02-27T16:19:10.812Z,27.00
2019-02-27T16:21:40.930Z,28.60
2019-02-27T16:24:10.304Z,29.47
2019-02-27T16:26:39.624Z,27.57
2019-02-27T16:29:08.950Z,28.73
2019-02-27T16:31:39.982Z,29.83
2019-02-27T16:34:09.371Z,30.53
2019-02-27T16:36:41.617Z,29.73
2019-02-27T16:39:11.341Z,29.83
2019-02-27T16:41:40.727Z,31.03
2019-02-27T16:44:11.140Z,31.03
2019-02-27T16:46:44.576Z,30.23
2019-02-27T16:49:11.833Z,30.07
2019-02-27T16:51:42.950Z,28.47
2019-02-27T16:54:13.302Z,31.23
2019-02-27T16:56:46.563Z,29.47
2019-02-27T16:59:13.760Z,28.70
2019-02-27T17:01:43.103Z,28.77
2019-02-27T17:04:12.459Z,29.80
2019-02-27T17:06:43.292Z,30.43
2019-02-27T17:09:13.348Z,31.50
2019-02-27T17:11:42.765Z,31.00
2019-02-27T17:14:12.134Z,30.60
2019-02-27T17:16:44.634Z,31.70
2019-02-27T17:19:12.727Z,29.90
2019-02-27T17:21:42.109Z,29.80
2019-02-27T17:24:11.430Z,29.20
2019-02-27T17:26:40.763Z,31.03
2019-02-27T17:29:10.115Z,31.07
2019-02-27T17:31:48.929Z,31.43
2019-02-27T17:34:13.668Z,31.60
2019-02-27T17:36:43.175Z,33.17
2019-02-27T17:39:12.506Z,31.73
2019-02-27T17:41:44.748Z,31.83
2019-02-27T17:44:13.001Z,31.17
2019-02-27T17:46:42.320Z,32.53
2019-02-27T17:49:11.654Z,31.80
2019-02-27T17:51:42.120Z,31.53
2019-02-27T17:54:11.494Z,31.17
2019-02-27T17:56:40.864Z,31.67
2019-02-27T17:59:10.230Z,31.87
2019-02-27T18:01:39.618Z,32.63
2019-02-27T18:04:08.952Z,32.90
2019-02-27T18:06:38.302Z,31.57
2019-02-27T18:09:08.598Z,31.10
2019-02-27T18:11:37.966Z,31.07
2019-02-27T18:14:09.890Z,32.87
2019-02-27T18:16:38.390Z,31.77
2019-02-27T18:19:07.901Z,33.03
2019-02-27T18:21:37.229Z,33.87
2019-02-27T18:24:06.864Z,34.10
2019-02-27T18:26:36.222Z,35.17
2019-02-27T18:29:07.730Z,34.73
2019-02-27T18:31:36.854Z,36.13
2019-02-27T18:34:06.201Z,39.50
2019-02-27T18:36:42.595Z,41.50
2019-02-27T18:39:07.805Z,40.43
2019-02-27T18:41:39.748Z,41.87
2019-02-27T18:44:09.210Z,45.70
2019-02-27T18:46:38.549Z,48.43
2019-02-27T18:49:07.904Z,46.33
2019-02-27T18:51:37.248Z,45.27
2019-02-27T18:54:06.627Z,47.40
2019-02-27T18:56:36.960Z,46.23
2019-02-27T18:59:07.083Z,47.13
2019-02-27T19:01:36.451Z,46.80
2019-02-27T19:04:06.585Z,48.87
2019-02-27T19:06:36.352Z,50.33
2019-02-27T19:09:06.954Z,52.17
2019-02-27T19:11:36.576Z,49.20
2019-02-27T19:14:06.478Z,50.83
2019-02-27T19:16:38.426Z,49.77
2019-02-27T19:19:07.870Z,49.87
2019-02-27T19:21:37.432Z,49.20
2019-02-27T19:24:06.792Z,49.97
2019-02-27T19:26:36.243Z,50.30
2019-02-27T19:29:05.850Z,52.03
2019-02-27T19:31:35.440Z,51.60
2019-02-27T19:34:07.442Z,51.30
2019-02-27T19:36:36.030Z,52.67
2019-02-27T19:39:07.260Z,51.13
2019-02-27T19:41:39.539Z,49.53
2019-02-27T19:44:08.087Z,50.60
2019-02-27T19:46:37.456Z,50.63
2019-02-27T19:49:06.796Z,50.70
2019-02-27T19:51:36.138Z,54.90
2019-02-27T19:54:05.546Z,53.47
2019-02-27T19:56:35.543Z,53.30
2019-02-27T19:59:05.660Z,54.43
2019-02-27T20:01:36.095Z,54.97
2019-02-27T20:04:09.047Z,53.47
2019-02-27T20:06:38.454Z,53.37
2019-02-27T20:09:09.075Z,52.70
2019-02-27T20:11:40.298Z,56.47
2019-02-27T20:14:09.993Z,57.20
2019-02-27T20:16:39.427Z,57.87
2019-02-27T20:19:32.773Z,57.90
2019-02-27T20:22:02.113Z,54.67
2019-02-27T20:24:32.409Z,56.63
2019-02-27T20:27:02.600Z,57.93
2019-02-27T20:29:32.065Z,54.80
2019-02-27T20:32:01.873Z,55.53
2019-02-27T20:34:31.240Z,59.00
2019-02-27T20:37:03.262Z,57.73
2019-02-27T20:39:31.677Z,53.90
2019-02-27T20:42:01.048Z,51.83
2019-02-27T20:44:30.390Z,51.77
2019-02-27T20:46:59.855Z,53.60
2019-02-27T20:49:29.206Z,53.33
2019-02-27T20:51:58.548Z,52.13
2019-02-27T20:54:27.904Z,52.10
2019-02-27T20:56:57.303Z,49.77
2019-02-27T20:59:26.632Z,52.20
2019-02-27T21:01:56.037Z,52.10
2019-02-27T21:04:25.427Z,52.80
2019-02-27T21:06:54.751Z,50.33
2019-02-27T21:09:24.080Z,50.80
2019-02-27T21:11:54.867Z,52.00
2019-02-27T21:14:24.284Z,52.00
2019-02-27T21:16:53.558Z,51.27
2019-02-27T21:19:22.903Z,54.20
2019-02-27T21:21:54.419Z,51.90
2019-02-27T21:24:23.475Z,51.33
2019-02-27T21:26:54.155Z,51.10
2019-02-27T21:29:23.638Z,51.50
2019-02-27T21:31:53.026Z,51.70
2019-02-27T21:34:22.369Z,50.87
2019-02-27T21:36:51.704Z,53.50
2019-02-27T21:39:22.545Z,53.93
2019-02-27T21:41:53.295Z,51.57
2019-02-27T21:44:25.706Z,52.60
2019-02-27T21:46:54.859Z,51.77
2019-02-27T21:49:25.182Z,52.27
2019-02-27T21:51:54.560Z,52.10
2019-02-27T21:54:23.916Z,52.27
2019-02-27T21:56:55.110Z,51.23
2019-02-27T21:59:24.335Z,53.73
2019-02-27T22:01:56.288Z,51.67
2019-02-27T22:04:24.832Z,52.57
2019-02-27T22:06:54.268Z,50.47
2019-02-27T22:09:23.662Z,52.70
2019-02-27T22:11:52.977Z,53.07
2019-02-27T22:14:22.300Z,53.40
2019-02-27T22:16:51.642Z,53.27
2019-02-27T22:19:20.963Z,53.57
2019-02-27T22:21:50.336Z,51.87
2019-02-27T22:24:20.988Z,54.27
2019-02-27T22:26:50.886Z,51.33
2019-02-27T22:29:20.226Z,54.30
2019-02-27T22:31:49.578Z,54.90
2019-02-27T22:34:18.912Z,52.60
2019-02-27T22:36:48.255Z,54.10
2019-02-27T22:39:17.683Z,51.63
2019-02-27T22:41:47.038Z,52.63
2019-02-27T22:44:16.354Z,51.80
2019-02-27T22:46:47.854Z,51.63
2019-02-27T22:49:16.771Z,51.97
2019-02-27T22:51:48.322Z,51.53
2019-02-27T22:54:17.191Z,52.47
2019-02-27T22:56:50.050Z,52.43
2019-02-27T22:59:17.598Z,53.73
2019-02-27T23:01:51.064Z,51.73
2019-02-27T23:04:20.474Z,52.80
2019-02-27T23:06:51.293Z,52.17
2019-02-27T23:11:53.761Z,52.80
2019-02-27T23:14:23.063Z,51.63
2019-02-27T23:16:52.538Z,52.83
2019-02-27T23:19:22.041Z,49.17
2019-02-27T23:21:51.394Z,49.70
2019-02-27T23:24:20.740Z,47.80
2019-02-27T23:26:54.321Z,48.57
2019-02-27T23:29:21.274Z,49.53
2019-02-27T23:31:50.609Z,47.83
2019-02-27T23:34:19.959Z,46.70
2019-02-27T23:36:49.287Z,47.20
2019-02-27T23:39:18.635Z,46.23
2019-02-27T23:41:47.966Z,45.53
2019-02-27T23:44:17.322Z,48.10
2019-02-27T23:46:51.334Z,44.63
2019-02-27T23:49:17.867Z,45.63
2019-02-27T23:51:48.409Z,45.63
2019-02-27T23:54:18.059Z,46.73
2019-02-27T23:56:47.421Z,47.00
2019-02-27T23:59:16.743Z,46.30
